Time;durP1;ratioP1;P1;durP2;ratioP2;P2;SDS_P1;SDS_P2;PMS_P1;PMS_P2;Temp;Humidity;BMP_temperature;BMP_pressure;BME280_temperature;BME280_humidity;BME280_pressure;Samples;Min_cycle;Max_cycle;Signal;HPM_P1;HPM_P2
2021/06/18 00:00:58;;;;;;;6.80;3.70;;;;;;;19.02;74.59;100333.34;6346640;28;20119;-67
2021/06/18 00:03:59;;;;;;;10.10;3.85;;;;;;;19.04;74.26;100341.13;6345398;28;20487;-67
2021/06/18 00:07:00;;;;;;;9.97;3.33;;;;;;;19.05;73.81;100334.88;6345252;28;20055;-66
2021/06/18 00:10:01;;;;;;;6.43;3.85;;;;;;;19.08;73.31;100334.59;6346416;28;20035;-66
2021/06/18 00:13:02;;;;;;;9.45;3.28;;;;;;;19.02;72.84;100332.50;6346242;28;20402;-66
2021/06/18 00:16:03;;;;;;;6.50;3.72;;;;;;;18.85;75.07;100326.97;6346250;28;20066;-67
2021/06/18 00:19:04;;;;;;;7.13;3.60;;;;;;;18.85;75.46;100321.69;6345098;28;20043;-66
2021/06/18 00:22:05;;;;;;;4.65;3.20;;;;;;;18.84;75.34;100316.53;6345134;28;20108;-66
2021/06/18 00:25:07;;;;;;;6.95;3.65;;;;;;;18.82;74.94;100314.03;6346200;28;20047;-67
2021/06/18 00:28:08;;;;;;;6.32;3.60;;;;;;;18.88;75.93;100318.78;6346030;28;20122;-67
2021/06/18 00:31:09;;;;;;;7.90;3.03;;;;;;;18.78;74.39;100312.63;6346079;28;20040;-67
2021/06/18 00:34:10;;;;;;;7.03;3.10;;;;;;;18.59;76.48;100309.97;6346054;28;20050;-67
2021/06/18 00:37:11;;;;;;;6.80;3.40;;;;;;;18.57;76.49;100311.91;6344952;28;20043;-66
2021/06/18 00:40:12;;;;;;;4.68;3.15;;;;;;;18.70;78.45;100310.66;6344837;28;20075;-67
2021/06/18 00:43:13;;;;;;;5.20;3.30;;;;;;;18.65;77.50;100309.41;6344815;28;20084;-66
2021/06/18 00:46:14;;;;;;;4.88;3.20;;;;;;;18.42;78.58;100314.97;6346569;28;20044;-67
2021/06/18 00:49:16;;;;;;;5.73;3.50;;;;;;;18.61;77.48;100306.22;6344891;28;20043;-66
2021/06/18 00:52:17;;;;;;;6.22;3.63;;;;;;;18.66;77.51;100311.09;6346362;28;20036;-67
2021/06/18 00:55:18;;;;;;;6.00;3.37;;;;;;;18.51;78.67;100305.38;6346020;28;20397;-66
2021/06/18 00:58:19;;;;;;;8.23;3.17;;;;;;;18.57;77.56;100307.47;6310834;28;20497;-67
2021/06/18 01:01:19;;;;;;;4.68;3.00;;;;;;;18.60;77.66;100299.28;6345822;28;20032;-67
2021/06/18 01:04:23;;;;;;;4.00;3.13;;;;;;;18.54;78.47;100307.75;6344608;28;20050;-66
2021/06/18 01:07:40;;;;;;;6.10;3.50;;;;;;;18.52;77.61;100301.78;6346023;28;20119;-67
2021/06/18 01:11:08;;;;;;;4.53;3.53;;;;;;;18.51;76.67;100303.59;6350652;28;20401;-66
2021/06/18 01:14:37;;;;;;;10.52;3.72;;;;;;;18.43;76.05;100307.88;6350359;28;20552;-66
2021/06/18 01:17:50;;;;;;;9.02;4.13;;;;;;;18.38;79.03;100304.81;6350510;28;20474;-67
2021/06/18 01:21:20;;;;;;;5.63;3.58;;;;;;;18.31;78.49;100291.34;6349271;28;20101;-67
2021/06/18 01:24:33;;;;;;;4.25;3.25;;;;;;;18.26;79.53;100293.53;6350166;28;20474;-67
2021/06/18 01:27:51;;;;;;;4.03;3.33;;;;;;;18.26;78.70;100286.47;6350224;28;20039;-66
2021/06/18 01:30:52;;;;;;;4.20;3.20;;;;;;;18.23;78.30;100283.28;6350191;28;20067;-67
2021/06/18 01:33:59;;;;;;;5.40;3.50;;;;;;;18.30;77.39;100277.31;6332166;28;20078;-67
2021/06/18 01:37:08;;;;;;;5.78;3.40;;;;;;;18.35;77.48;100270.78;6349931;28;20059;-67
2021/06/18 01:40:10;;;;;;;6.63;3.45;;;;;;;18.41;76.07;100275.47;6348652;28;20050;-67
2021/06/18 01:43:13;;;;;;;3.60;2.95;;;;;;;18.41;75.99;100267.56;6349841;28;20043;-66
2021/06/18 01:46:18;;;;;;;5.57;3.40;;;;;;;18.44;75.84;100269.94;6349880;27;20067;-67
2021/06/18 01:49:21;;;;;;;4.53;3.42;;;;;;;18.43;75.39;100270.88;6350045;28;20047;-66
2021/06/18 01:52:22;;;;;;;5.43;3.45;;;;;;;18.29;76.30;100267.69;6348555;28;20044;-66
2021/06/18 01:55:24;;;;;;;6.30;3.30;;;;;;;18.34;77.07;100269.91;6349816;27;20489;-67
2021/06/18 01:58:26;;;;;;;8.85;3.55;;;;;;;18.19;79.46;100266.03;6348611;28;20332;-67
2021/06/18 02:01:36;;;;;;;7.10;3.88;;;;;;;18.27;77.69;100263.53;6349322;28;20040;-67
2021/06/18 02:04:40;;;;;;;6.35;3.78;;;;;;;18.16;79.70;100266.28;6349426;28;20067;-67
2021/06/18 02:07:44;;;;;;;4.85;3.55;;;;;;;18.18;78.43;100259.91;6349373;27;20126;-67
2021/06/18 02:10:48;;;;;;;6.20;3.95;;;;;;;18.17;77.82;100260.88;6347972;28;20245;-66
2021/06/18 02:13:49;;;;;;;7.80;3.97;;;;;;;18.17;78.96;100260.88;6348807;28;20047;-67
2021/06/18 02:16:57;;;;;;;6.57;3.60;;;;;;;18.10;80.73;100257.97;6349166;28;20409;-66
2021/06/18 02:20:00;;;;;;;9.20;3.90;;;;;;;18.07;81.30;100258.22;6346576;28;20402;-67
2021/06/18 02:23:01;;;;;;;8.18;4.00;;;;;;;18.12;81.73;100268.38;6349069;28;20039;-66
2021/06/18 02:26:04;;;;;;;7.80;4.05;;;;;;;18.12;80.88;100261.28;6348778;28;20040;-67
2021/06/18 02:29:07;;;;;;;7.28;4.32;;;;;;;18.04;82.71;100261.16;6348756;28;20051;-67
2021/06/18 02:32:11;;;;;;;5.50;4.40;;;;;;;17.94;80.62;100260.28;6348695;28;20100;-67
2021/06/18 02:35:12;;;;;;;4.97;4.05;;;;;;;17.92;81.73;100264.88;6347606;28;20362;-67
2021/06/18 02:38:14;;;;;;;10.90;4.63;;;;;;;17.83;82.23;100261.25;6348621;28;20040;-67
2021/06/18 02:41:16;;;;;;;6.47;4.25;;;;;;;17.85;81.72;100261.94;6347259;28;20426;-67
2021/06/18 02:44:16;;;;;;;6.95;4.50;;;;;;;17.91;81.61;100269.31;6348371;28;20036;-67
2021/06/18 02:47:25;;;;;;;8.30;4.50;;;;;;;17.97;81.42;100273.22;6347027;28;20046;-67
2021/06/18 02:50:57;;;;;;;11.43;4.13;;;;;;;18.03;81.41;100271.84;6348206;28;20036;-66
2021/06/18 02:54:23;;;;;;;9.77;5.20;;;;;;;18.03;81.52;100280.59;6348170;28;20591;-66
2021/06/18 02:57:29;;;;;;;13.27;4.75;;;;;;;18.04;82.21;100270.88;6334132;28;20058;-67
2021/06/18 03:00:30;;;;;;;7.47;4.53;;;;;;;18.07;82.64;100268.78;6348108;28;20043;-67
2021/06/18 03:03:41;;;;;;;9.27;5.75;;;;;;;18.02;82.25;100271.00;6346749;28;20071;-67
2021/06/18 03:06:42;;;;;;;8.27;5.63;;;;;;;18.02;82.11;100271.00;6347869;28;20039;-67
2021/06/18 03:09:49;;;;;;;9.70;6.13;;;;;;;18.07;82.41;100274.06;6329643;28;20082;-67
2021/06/18 03:12:55;;;;;;;8.75;5.63;;;;;;;18.12;82.43;100271.84;6347805;28;20058;-66
2021/06/18 03:15:56;;;;;;;9.32;5.45;;;;;;;18.11;83.10;100269.34;6347396;28;20127;-67
2021/06/18 03:19:01;;;;;;;10.90;5.32;;;;;;;18.15;83.06;100273.38;6347631;28;20554;-67
2021/06/18 03:22:03;;;;;;;10.88;5.90;;;;;;;18.17;83.61;100278.53;6347548;28;20063;-67
2021/06/18 03:25:07;;;;;;;11.75;5.65;;;;;;;18.19;83.14;100274.78;6347365;28;20035;-67
2021/06/18 03:28:10;;;;;;;12.60;5.63;;;;;;;18.25;82.87;100278.69;6329621;28;20069;-66
2021/06/18 03:31:12;;;;;;;10.43;5.93;;;;;;;18.33;81.19;100287.59;6346881;28;20043;-67
2021/06/18 03:34:13;;;;;;;12.68;6.35;;;;;;;18.35;80.33;100282.16;6346011;28;20043;-67
2021/06/18 03:37:15;;;;;;;13.65;6.30;;;;;;;18.40;80.19;100279.94;6345950;28;20043;-67
2021/06/18 03:40:18;;;;;;;9.73;6.15;;;;;;;18.43;80.91;100290.22;6347109;27;20039;-67
2021/06/18 03:43:19;;;;;;;11.35;6.18;;;;;;;18.47;81.52;100290.78;6328668;28;20066;-67
2021/06/18 03:46:21;;;;;;;11.82;6.10;;;;;;;18.58;81.90;100305.69;6345699;28;20092;-67
2021/06/18 03:49:25;;;;;;;12.32;6.60;;;;;;;18.58;79.56;100297.75;6328807;28;20047;-66
2021/06/18 03:52:26;;;;;;;15.40;7.05;;;;;;;18.66;79.54;100304.00;6346817;28;20047;-67
2021/06/18 03:55:27;;;;;;;14.60;6.50;;;;;;;18.79;79.76;100300.25;6346678;28;20405;-66
2021/06/18 03:58:29;;;;;;;12.95;6.55;;;;;;;18.82;79.44;100299.97;6346717;28;20126;-66
2021/06/18 04:01:31;;;;;;;13.98;7.20;;;;;;;18.85;80.47;100305.00;6346643;28;20043;-67
2021/06/18 04:04:33;;;;;;;11.20;6.60;;;;;;;18.89;80.20;100301.91;6345318;28;20039;-67
2021/06/18 04:07:34;;;;;;;19.15;6.90;;;;;;;18.90;79.36;100308.88;6311641;28;20050;-66
2021/06/18 04:10:38;;;;;;;13.10;6.57;;;;;;;19.01;77.87;100307.06;6346414;28;20043;-67
2021/06/18 04:13:41;;;;;;;16.05;6.72;;;;;;;19.04;77.93;100301.47;6346217;28;20436;-67
2021/06/18 04:16:42;;;;;;;13.60;7.38;;;;;;;19.14;78.34;100302.28;6346221;28;20047;-67
2021/06/18 04:19:44;;;;;;;12.50;6.65;;;;;;;19.22;78.34;100302.41;6346441;28;20047;-67
2021/06/18 04:22:45;;;;;;;10.00;6.60;;;;;;;19.24;78.59;100305.75;6346486;28;20035;-66
2021/06/18 04:25:46;;;;;;;15.55;7.03;;;;;;;19.28;78.21;100309.75;6345055;28;20040;-67
2021/06/18 04:28:47;;;;;;;11.23;6.93;;;;;;;19.37;78.24;100308.06;6346210;28;20044;-66
2021/06/18 04:31:48;;;;;;;11.57;6.23;;;;;;;19.46;78.89;100316.97;6345134;28;20553;-67
2021/06/18 04:34:49;;;;;;;13.83;6.53;;;;;;;19.45;78.35;100318.75;6344932;28;20076;-67
2021/06/18 04:37:50;;;;;;;13.60;6.80;;;;;;;19.52;77.27;100311.09;6344789;28;20035;-67
2021/06/18 04:40:51;;;;;;;13.73;7.20;;;;;;;19.57;76.46;100308.84;6345002;28;20561;-66
2021/06/18 04:43:52;;;;;;;12.43;7.20;;;;;;;19.65;76.08;100324.00;6330841;28;20406;-66
2021/06/18 04:46:53;;;;;;;12.07;7.00;;;;;;;19.71;76.12;100318.97;6350261;28;20122;-67
2021/06/18 04:49:54;;;;;;;12.27;7.27;;;;;;;19.76;75.80;100320.34;6316201;28;20036;-67
2021/06/18 04:52:55;;;;;;;15.60;6.90;;;;;;;19.84;75.02;100317.81;6350006;28;20083;-67
2021/06/18 04:55:56;;;;;;;12.57;7.20;;;;;;;19.89;74.77;100320.81;6350013;28;20125;-67
2021/06/18 04:58:59;;;;;;;13.67;7.10;;;;;;;19.97;75.07;100317.44;6350991;28;20039;-67
2021/06/18 05:01:59;;;;;;;9.68;6.97;;;;;;;20.08;73.52;100317.25;6349876;28;20073;-65
2021/06/18 05:05:00;;;;;;;16.47;7.30;;;;;;;20.12;74.11;100311.50;6350653;28;20095;-64
2021/06/18 05:08:01;;;;;;;20.97;7.30;;;;;;;20.25;72.60;100310.31;6332541;28;20130;-64
2021/06/18 05:11:02;;;;;;;13.77;7.23;;;;;;;20.31;73.70;100296.47;6349422;28;20040;-63
2021/06/18 05:14:03;;;;;;;12.33;7.10;;;;;;;20.40;72.90;100294.72;6349252;28;20051;-64
2021/06/18 05:17:03;;;;;;;13.77;7.00;;;;;;;20.48;71.98;100298.28;6350490;28;20036;-64
2021/06/18 05:20:05;;;;;;;9.57;6.27;;;;;;;20.61;70.90;100283.84;6350471;28;20092;-63
2021/06/18 05:23:06;;;;;;;8.68;6.20;;;;;;;20.70;71.24;100275.81;6350466;28;20048;-64
2021/06/18 05:26:06;;;;;;;13.13;5.73;;;;;;;20.85;70.70;100280.56;6331949;28;20054;-63
2021/06/18 05:29:07;;;;;;;10.40;6.40;;;;;;;20.89;71.26;100284.56;6348977;28;20123;-65
2021/06/18 05:32:08;;;;;;;7.23;5.57;;;;;;;20.97;70.76;100299.69;6350150;28;20126;-64
2021/06/18 05:35:09;;;;;;;18.10;6.70;;;;;;;21.05;70.59;100310.38;6350144;28;20088;-64
2021/06/18 05:38:10;;;;;;;11.77;6.53;;;;;;;21.12;70.94;100303.44;6349960;28;20043;-64
2021/06/18 05:41:11;;;;;;;9.27;5.95;;;;;;;21.19;70.43;100306.28;6350288;28;20420;-64
2021/06/18 05:44:12;;;;;;;13.27;6.23;;;;;;;21.26;69.38;100315.31;6349746;28;20036;-64
2021/06/18 05:47:13;;;;;;;10.90;6.13;;;;;;;21.36;69.33;100309.91;6349835;28;20285;-64
2021/06/18 05:50:14;;;;;;;11.47;5.67;;;;;;;21.46;69.04;100316.78;6348535;28;20482;-64
2021/06/18 05:53:14;;;;;;;9.20;5.70;;;;;;;21.56;67.73;100307.84;6349472;28;20059;-64
2021/06/18 05:56:15;;;;;;;10.93;5.63;;;;;;;21.67;67.62;100312.91;6331514;28;20048;-64
2021/06/18 05:59:16;;;;;;;15.17;6.37;;;;;;;21.74;69.63;100321.88;6314896;28;20036;-64
2021/06/18 06:02:18;;;;;;;6.73;4.90;;;;;;;21.88;66.53;100323.94;6331436;28;20118;-64
2021/06/18 06:05:19;;;;;;;9.68;5.13;;;;;;;22.01;66.44;100325.31;6348042;28;20512;-63
2021/06/18 06:08:20;;;;;;;13.23;5.13;;;;;;;22.13;64.73;100324.88;6349313;28;20244;-64
2021/06/18 06:11:22;;;;;;;13.47;5.20;;;;;;;22.27;64.77;100319.94;6330994;28;20036;-64
2021/06/18 06:14:23;;;;;;;9.20;5.28;;;;;;;22.39;64.41;100317.81;6347776;28;20047;-65
2021/06/18 06:17:24;;;;;;;11.77;5.63;;;;;;;22.49;63.78;100319.31;6349095;28;20093;-66
2021/06/18 06:20:25;;;;;;;8.37;5.13;;;;;;;22.58;63.80;100324.63;6347888;28;20048;-65
2021/06/18 06:23:25;;;;;;;9.77;4.57;;;;;;;22.64;62.78;100321.31;6348995;28;20305;-63
2021/06/18 06:26:26;;;;;;;13.30;4.63;;;;;;;22.74;63.05;100325.47;6348886;28;20122;-64
2021/06/18 06:29:27;;;;;;;11.67;5.13;;;;;;;22.92;64.52;100321.81;6348728;28;20050;-64
2021/06/18 06:32:28;;;;;;;10.40;5.57;;;;;;;23.01;61.42;100309.31;6348651;28;20039;-64
2021/06/18 06:35:28;;;;;;;12.30;4.50;;;;;;;23.13;59.90;100316.81;6347484;28;20051;-64
2021/06/18 06:38:29;;;;;;;8.30;4.50;;;;;;;23.24;60.85;100318.28;6330411;28;20047;-65
2021/06/18 06:41:30;;;;;;;8.20;4.00;;;;;;;23.34;62.32;100318.09;6347485;28;20410;-65
2021/06/18 06:44:31;;;;;;;9.37;3.90;;;;;;;23.49;59.78;100319.09;6348734;28;20043;-63
2021/06/18 06:47:32;;;;;;;;;;;;;;;23.53;62.05;100319.53;6348801;28;20039;-63
2021/06/18 06:50:33;;;;;;;10.35;4.25;;;;;;;23.59;61.51;100318.84;6347056;28;19969;-64
2021/06/18 06:53:34;;;;;;;11.45;4.32;;;;;;;23.67;60.72;100318.00;6346997;28;20048;-63
2021/06/18 06:56:36;;;;;;;11.93;4.83;;;;;;;23.75;60.67;100315.31;6346863;28;20580;-63
2021/06/18 06:59:37;;;;;;;7.00;3.92;;;;;;;23.83;59.10;100315.31;6347017;28;20043;-63
2021/06/18 07:02:38;;;;;;;4.87;3.77;;;;;;;23.96;58.33;100306.75;6348132;28;20096;-63
2021/06/18 07:05:38;;;;;;;14.37;4.03;;;;;;;24.01;60.03;100311.53;6347371;28;20044;-63
2021/06/18 07:08:39;;;;;;;7.60;4.07;;;;;;;24.00;59.38;100305.38;6346628;28;20271;-63
2021/06/18 07:11:40;;;;;;;9.03;3.87;;;;;;;24.10;59.58;100306.00;6347653;28;20044;-63
2021/06/18 07:14:41;;;;;;;5.25;3.92;;;;;;;24.25;57.72;100307.91;6347618;28;20188;-63
2021/06/18 07:17:42;;;;;;;16.17;4.00;;;;;;;24.42;57.51;100311.28;6329486;28;20497;-64
2021/06/18 07:20:44;;;;;;;7.32;3.90;;;;;;;24.60;59.36;100316.38;6347489;28;20078;-65
2021/06/18 07:23:45;;;;;;;;;;;;;;;24.74;57.55;100311.06;6347967;28;20047;-63
2021/06/18 07:26:45;;;;;;;10.43;4.05;;;;;;;24.82;59.91;100299.50;6347186;28;19920;-63
2021/06/18 07:29:46;;;;;;;12.80;3.40;;;;;;;24.91;55.24;100297.59;6345628;28;20066;-63
2021/06/18 07:32:47;;;;;;;9.20;3.17;;;;;;;25.01;54.58;100295.47;6347117;28;20035;-63
2021/06/18 07:35:48;;;;;;;7.83;3.83;;;;;;;25.16;53.03;100290.16;6345876;28;20325;-63
2021/06/18 07:38:49;;;;;;;5.57;3.40;;;;;;;25.22;54.47;100285.97;6346846;28;20046;-63
2021/06/18 07:41:49;;;;;;;8.60;3.30;;;;;;;25.31;55.06;100285.69;6347011;28;20044;-63
2021/06/18 07:44:50;;;;;;;8.55;3.33;;;;;;;25.36;54.91;100282.47;6346986;28;20047;-63
2021/06/18 07:47:51;;;;;;;7.05;2.95;;;;;;;25.49;52.35;100282.66;6346631;28;20070;-63
2021/06/18 07:50:52;;;;;;;8.18;2.95;;;;;;;25.57;52.33;100280.88;6345443;28;20089;-63
2021/06/18 07:53:53;;;;;;;4.60;2.90;;;;;;;25.63;53.98;100275.63;6346570;28;20040;-63
2021/06/18 07:56:55;;;;;;;8.93;3.03;;;;;;;25.72;52.53;100279.84;6345564;28;20050;-63
2021/06/18 07:59:55;;;;;;;7.88;3.33;;;;;;;25.80;52.79;100278.94;6328289;28;20044;-63
2021/06/18 08:02:58;;;;;;;7.15;3.15;;;;;;;25.88;54.54;100273.47;6345313;28;20055;-63
2021/06/18 08:05:59;;;;;;;12.23;3.35;;;;;;;25.97;53.87;100279.56;6346304;28;20119;-63
2021/06/18 08:09:00;;;;;;;7.63;3.25;;;;;;;26.07;50.28;100272.06;6346349;28;20047;-62
2021/06/18 08:12:01;;;;;;;7.45;3.05;;;;;;;26.03;52.36;100277.97;6344945;28;20437;-63
2021/06/18 08:15:02;;;;;;;5.22;3.13;;;;;;;26.03;51.51;100275.31;6346019;28;20052;-65
2021/06/18 08:18:03;;;;;;;4.20;3.00;;;;;;;26.02;53.00;100269.09;6345290;28;20505;-65
2021/06/18 08:21:05;;;;;;;7.63;2.90;;;;;;;26.10;52.05;100266.31;6346017;28;20043;-65
2021/06/18 08:24:07;;;;;;;5.88;3.13;;;;;;;26.14;50.72;100261.44;6346134;28;20391;-65
2021/06/18 08:27:07;;;;;;;11.38;3.17;;;;;;;26.22;50.81;100260.47;6344880;28;20035;-65
2021/06/18 08:30:09;;;;;;;6.78;2.90;;;;;;;26.31;52.39;100260.13;6310912;28;20050;-64
2021/06/18 08:33:10;;;;;;;5.60;2.70;;;;;;;26.32;49.64;100264.47;6346013;28;20036;-64
2021/06/18 08:36:11;;;;;;;11.95;3.30;;;;;;;26.38;49.25;100262.06;6345987;28;20101;-64
2021/06/18 08:39:12;;;;;;;11.38;3.05;;;;;;;26.29;52.02;100259.50;6344769;28;20035;-64
2021/06/18 08:42:13;;;;;;;9.48;3.33;;;;;;;26.25;50.33;100260.94;6345852;28;20040;-65
2021/06/18 08:45:14;;;;;;;5.35;3.00;;;;;;;26.36;47.46;100262.25;6345894;28;20040;-65
2021/06/18 08:48:15;;;;;;;7.90;2.40;;;;;;;26.48;47.58;100260.72;6345621;28;20047;-64
2021/06/18 08:51:17;;;;;;;5.50;2.78;;;;;;;26.48;47.21;100254.53;6344519;28;20127;-64
2021/06/18 08:54:18;;;;;;;6.28;2.70;;;;;;;26.64;47.40;100259.63;6344409;28;20134;-65
2021/06/18 08:57:21;;;;;;;6.38;2.78;;;;;;;26.61;48.34;100253.88;6345711;28;20042;-65
2021/06/18 09:00:23;;;;;;;4.63;2.63;;;;;;;26.74;48.74;100259.31;6345576;28;20063;-65
2021/06/18 09:03:41;;;;;;;8.07;2.90;;;;;;;27.03;43.85;100246.75;6345961;28;20066;-64
2021/06/18 09:06:43;;;;;;;4.10;2.45;;;;;;;27.12;43.82;100243.72;6345580;28;20035;-64
2021/06/18 09:09:44;;;;;;;5.43;2.70;;;;;;;27.11;47.65;100249.25;6344227;28;20043;-64
2021/06/18 09:13:08;;;;;;;6.85;2.97;;;;;;;27.17;46.65;100253.81;6345489;28;20046;-64
2021/06/18 09:16:09;;;;;;;6.10;3.45;;;;;;;27.22;46.74;100248.72;6344267;28;20436;-64
2021/06/18 09:19:25;;;;;;;7.78;3.00;;;;;;;27.24;45.77;100244.03;6327160;28;20054;-64
2021/06/18 09:22:43;;;;;;;3.08;2.78;;;;;;;27.30;44.29;100235.19;6344132;28;20104;-64
2021/06/18 09:25:44;;;;;;;3.00;2.55;;;;;;;27.34;47.28;100243.63;6327487;28;20066;-64
2021/06/18 09:29:14;;;;;;;4.32;2.70;;;;;;;27.39;45.42;100235.03;6344876;28;20043;-64
2021/06/18 09:32:15;;;;;;;5.20;2.85;;;;;;;27.44;44.70;100236.06;6350038;28;20040;-65
2021/06/18 09:35:16;;;;;;;4.82;2.92;;;;;;;27.54;45.73;100233.00;6349085;28;20120;-65
2021/06/18 09:38:17;;;;;;;4.43;2.53;;;;;;;27.59;47.63;100225.19;6349777;28;20086;-65
2021/06/18 09:41:38;;;;;;;5.78;2.65;;;;;;;27.57;46.41;100227.25;6349825;28;20035;-64
2021/06/18 09:44:38;;;;;;;3.72;2.58;;;;;;;27.67;44.35;100227.69;6349779;28;20480;-65
2021/06/18 09:47:40;;;;;;;4.38;2.92;;;;;;;27.65;45.79;100223.56;6331591;28;20431;-65
2021/06/18 09:50:44;;;;;;;3.58;2.50;;;;;;;27.88;41.49;100228.59;6349387;28;20044;-65
2021/06/18 09:53:45;;;;;;;5.88;2.20;;;;;;;27.91;41.11;100215.63;6349745;28;20319;-65
2021/06/18 09:56:45;;;;;;;4.38;3.00;;;;;;;27.98;45.17;100222.84;6348301;28;20043;-65
2021/06/18 09:59:54;;;;;;;6.47;3.15;;;;;;;27.97;44.73;100219.34;6348277;28;20101;-66
2021/06/18 10:02:56;;;;;;;17.55;2.97;;;;;;;28.09;41.48;100214.22;6349233;28;20063;-68
2021/06/18 10:05:57;;;;;;;7.72;2.60;;;;;;;28.23;40.77;100217.72;6348062;28;20040;-68
2021/06/18 10:09:00;;;;;;;3.95;2.47;;;;;;;28.32;43.24;100208.44;6348077;28;20047;-67
2021/06/18 10:12:01;;;;;;;3.05;2.50;;;;;;;28.36;39.23;100207.00;6349280;28;20035;-68
2021/06/18 10:15:07;;;;;;;5.60;2.50;;;;;;;28.44;42.72;100198.75;6348814;28;20059;-70
2021/06/18 10:18:12;;;;;;;6.93;2.40;;;;;;;28.57;40.04;100195.25;6348963;28;20039;-69
2021/06/18 10:21:12;;;;;;;4.88;2.55;;;;;;;28.62;38.75;100191.94;6348873;28;20051;-69
2021/06/18 10:24:15;;;;;;;7.05;2.65;;;;;;;28.66;39.97;100190.50;6348811;28;20390;-69
2021/06/18 10:27:18;;;;;;;4.65;2.40;;;;;;;28.65;39.19;100178.13;6347584;28;20067;-69
2021/06/18 10:30:24;;;;;;;4.55;2.22;;;;;;;28.77;39.19;100178.31;6348444;28;20039;-68
2021/06/18 10:33:28;;;;;;;3.08;2.38;;;;;;;28.93;39.21;100180.50;6348521;28;20039;-68
2021/06/18 10:36:30;;;;;;;2.65;1.88;;;;;;;29.05;38.49;100186.88;6348481;28;20040;-68
2021/06/18 10:39:48;;;;;;;9.32;2.10;;;;;;;29.11;38.27;100179.88;6348319;28;20462;-68
2021/06/18 10:43:08;;;;;;;5.05;2.30;;;;;;;29.07;38.07;100175.94;6347778;28;20371;-68
2021/06/18 10:46:15;;;;;;;6.73;2.27;;;;;;;29.18;39.80;100179.84;6347161;28;20051;-61
2021/06/18 10:49:16;;;;;;;3.53;2.08;;;;;;;29.33;41.31;100173.16;6347979;28;20168;-61
2021/06/18 10:52:23;;;;;;;3.55;2.20;;;;;;;29.50;39.14;100172.66;6347775;28;20047;-62
2021/06/18 10:55:46;;;;;;;3.95;1.90;;;;;;;29.60;37.08;100167.66;6346887;28;20478;-63
2021/06/18 10:59:09;;;;;;;6.43;2.15;;;;;;;29.62;37.08;100170.13;6347982;28;20043;-63
2021/06/18 11:05:25;;;;;;;2.83;2.22;;;;;;;29.75;38.76;100166.56;6347718;28;20044;-63
2021/06/18 11:08:26;;;;;;;5.93;2.13;;;;;;;29.84;35.34;100160.72;6346502;28;20093;-63
2021/06/18 11:11:27;;;;;;;5.05;2.33;;;;;;;29.81;37.06;100165.69;6347417;28;20040;-63
2021/06/18 11:14:35;;;;;;;;;;;;;;;29.78;38.95;100158.91;6346718;28;20477;-63
2021/06/18 11:17:53;;;;;;;5.13;2.78;;;;;;;29.92;37.95;100170.41;6347443;28;19927;-63
2021/06/18 11:20:56;;;;;;;4.32;2.05;;;;;;;30.02;38.62;100168.03;6347463;28;20043;-63
2021/06/18 11:23:59;;;;;;;2.58;2.25;;;;;;;29.86;38.16;100164.00;6347350;28;20073;-63
2021/06/18 11:27:24;;;;;;;6.60;2.50;;;;;;;29.79;37.07;100151.66;6346016;28;20043;-63
2021/06/18 11:30:30;;;;;;;4.90;2.00;;;;;;;30.18;36.00;100157.75;6346968;28;20062;-63
2021/06/18 11:33:40;;;;;;;5.82;2.05;;;;;;;29.98;38.87;100164.13;6340580;28;20035;-64
2021/06/18 11:36:42;;;;;;;2.42;1.80;;;;;;;30.29;35.72;100159.72;6347245;28;20039;-64
2021/06/18 11:39:43;;;;;;;3.83;2.13;;;;;;;30.67;36.24;100142.63;6347277;28;20050;-64
2021/06/18 11:42:44;;;;;;;6.68;2.20;;;;;;;30.88;32.28;100136.81;6328637;28;20070;-64
2021/06/18 11:45:46;;;;;;;7.38;2.13;;;;;;;31.10;32.45;100144.44;6324523;28;20039;-65
2021/06/18 11:48:47;;;;;;;4.15;2.38;;;;;;;31.31;34.52;100138.53;6345390;28;20067;-65
2021/06/18 11:51:48;;;;;;;;;;;;;;;31.60;34.12;100138.00;6345848;28;20053;-64
2021/06/18 11:54:57;;;;;;;6.88;2.35;;;;;;;31.80;33.74;100124.22;6363030;27;19962;-66
2021/06/18 11:57:58;;;;;;;2.35;1.90;;;;;;;32.05;37.27;100121.34;6322240;28;20059;-65
2021/06/18 12:01:19;;;;;;;;;;;;;;;31.60;36.31;100119.09;6321898;28;20048;-65
2021/06/18 12:04:20;;;;;;;6.60;2.10;;;;;;;31.01;34.46;100124.22;6319656;28;19920;-65
2021/06/18 12:07:33;;;;;;;;;;;;;;;31.26;35.18;100114.16;6321850;28;20276;-65
2021/06/18 12:10:34;;;;;;;8.57;1.98;;;;;;;31.95;31.62;100126.44;6321302;28;19924;-65
2021/06/18 12:13:49;;;;;;;3.65;2.05;;;;;;;33.41;29.78;100122.88;6320107;28;20498;-67
2021/06/18 12:16:52;;;;;;;2.70;1.85;;;;;;;35.22;26.87;100122.59;6321309;28;20077;-67
2021/06/18 12:19:53;;;;;;;6.63;1.75;;;;;;;36.64;25.58;100121.31;6320060;28;20044;-65
2021/06/18 12:22:54;;;;;;;3.20;1.73;;;;;;;38.02;23.51;100121.56;6319933;28;20139;-66
2021/06/18 12:25:55;;;;;;;4.72;1.70;;;;;;;38.57;22.47;100118.19;6321184;28;20044;-66
2021/06/18 12:28:57;;;;;;;5.45;1.90;;;;;;;38.84;22.88;100121.38;6324228;28;20546;-65
2021/06/18 12:31:59;;;;;;;4.18;1.60;;;;;;;39.77;22.73;100118.88;6346301;28;20035;-65
2021/06/18 12:35:03;;;;;;;2.17;1.58;;;;;;;39.47;22.09;100122.66;6345173;28;20122;-64
2021/06/18 12:38:05;;;;;;;1.90;1.60;;;;;;;39.74;20.66;100115.91;6346336;28;20035;-65
2021/06/18 12:41:06;;;;;;;2.67;1.60;;;;;;;40.28;20.43;100123.88;6344951;28;20043;-64
2021/06/18 12:44:08;;;;;;;4.40;1.42;;;;;;;39.73;19.50;100109.63;6345852;28;20038;-65
2021/06/18 12:47:11;;;;;;;3.03;1.45;;;;;;;39.79;19.29;100104.94;6346209;28;20036;-65
2021/06/18 12:50:28;;;;;;;3.63;1.63;;;;;;;37.36;23.22;100113.38;6345557;28;20032;-65
2021/06/18 12:53:40;;;;;;;4.18;1.80;;;;;;;35.05;27.94;100118.03;6344755;28;20127;-65
2021/06/18 12:56:45;;;;;;;3.70;1.70;;;;;;;33.76;28.54;100117.28;6346077;28;20495;-64
2021/06/18 12:59:46;;;;;;;6.40;1.90;;;;;;;33.19;29.48;100109.22;6346508;28;20039;-63
2021/06/18 13:02:55;;;;;;;3.17;1.90;;;;;;;34.75;27.34;100106.84;6344686;28;20059;-66
2021/06/18 13:05:57;;;;;;;4.03;1.90;;;;;;;37.03;24.80;100102.69;6350531;28;20383;-65
2021/06/18 13:08:59;;;;;;;9.55;2.13;;;;;;;37.82;23.62;100105.25;6347327;28;20047;-66
2021/06/18 13:12:00;;;;;;;6.32;2.00;;;;;;;37.85;23.06;100102.00;6350983;27;20393;-65
2021/06/18 13:15:01;;;;;;;13.77;1.98;;;;;;;37.57;22.17;100100.59;6349472;28;20110;-66
2021/06/18 13:18:05;;;;;;;3.88;1.73;;;;;;;37.14;23.52;100102.72;6337561;28;20047;-66
2021/06/18 13:21:06;;;;;;;4.32;1.60;;;;;;;36.20;25.97;100097.13;6325719;28;20543;-66
2021/06/18 13:24:18;;;;;;;4.70;1.90;;;;;;;35.62;25.19;100094.19;6324388;28;20044;-65
2021/06/18 13:27:20;;;;;;;3.50;1.95;;;;;;;35.14;26.67;100082.34;6328699;28;20121;-66
2021/06/18 13:30:21;;;;;;;8.68;2.20;;;;;;;34.80;28.22;100086.06;6325042;28;20475;-65
2021/06/18 13:33:22;;;;;;;4.80;2.00;;;;;;;33.56;29.78;100087.16;6323649;28;20047;-65
2021/06/18 13:36:29;;;;;;;7.18;2.55;;;;;;;32.84;30.51;100092.03;6323805;28;20035;-65
2021/06/18 13:39:50;;;;;;;7.32;2.50;;;;;;;32.16;30.90;100088.13;6324872;28;20441;-65
2021/06/18 13:42:51;;;;;;;6.75;2.20;;;;;;;31.76;31.68;100082.56;6323658;28;20096;-66
2021/06/18 13:45:53;;;;;;;4.47;2.42;;;;;;;31.52;32.66;100079.81;6324720;28;20380;-66
2021/06/18 13:48:55;;;;;;;6.00;2.00;;;;;;;31.26;32.84;100081.00;6348601;28;20081;-66
2021/06/18 13:51:55;;;;;;;6.85;2.10;;;;;;;31.29;33.95;100067.88;6331697;28;20534;-65
2021/06/18 13:54:56;;;;;;;;;;;;;;;31.76;32.42;100069.09;6350524;28;20046;-66
2021/06/18 13:57:57;;;;;;;7.50;2.37;;;;;;;32.22;31.96;100067.47;6349874;28;19923;-66
2021/06/18 14:00:57;;;;;;;;;;;;;;;32.48;31.48;100074.25;6349056;27;20134;-66
2021/06/18 14:03:58;;;;;;;3.53;2.13;;;;;;;32.57;31.07;100066.63;6349586;28;19927;-66
2021/06/18 14:07:00;;;;;;;6.32;2.20;;;;;;;32.60;32.20;100064.28;6348296;28;20272;-66
2021/06/18 14:10:01;;;;;;;;;;;;;;;32.62;30.87;100062.16;6331721;28;20058;-65
2021/06/18 14:13:01;;;;;;;3.83;2.40;;;;;;;32.75;32.12;100063.75;6349283;28;19924;-67
2021/06/18 14:16:02;;;;;;;3.40;2.25;;;;;;;32.85;29.52;100047.75;6348231;28;20135;-67